Time;durP1;ratioP1;P1;durP2;ratioP2;P2;SDS_P1;SDS_P2;PMS_P1;PMS_P2;Temp;Humidity;BMP_temperature;BMP_pressure;BME280_temperature;BME280_humidity;BME280_pressure;Samples;Min_cycle;Max_cycle;Signal;HPM_P1;HPM_P2
2022/05/30 00:01:19;;;;;;;;;;;;;;;11.60;69.31;100877.69;1682384;84;20266;-63
2022/05/30 00:04:23;;;;;;;;;;;;;;;11.59;69.32;100874.58;1681265;85;20199;-64
2022/05/30 00:07:27;;;;;;;;;;;;;;;11.59;69.41;100880.06;1682170;85;20250;-64
2022/05/30 00:10:33;;;;;;;;;;;;;;;11.59;69.48;100875.12;1681982;84;20199;-63
2022/05/30 00:13:39;;;;;;;;;;;;;;;11.57;69.45;100870.31;1681268;85;20535;-63
2022/05/30 00:16:44;;;;;;;;;;;;;;;11.55;69.47;100856.77;1682070;85;20203;-63
2022/05/30 00:19:51;;;;;;;;;;;;;;;11.50;69.35;100859.16;1682426;84;20291;-63
2022/05/30 00:22:58;;;;;;;;;;;;;;;11.47;69.36;100855.39;1682961;85;20306;-62
2022/05/30 00:26:04;;;;;;;;;;;;;;;11.48;69.50;100853.52;1682996;85;20202;-63
2022/05/30 00:29:11;;;;;;;;;;;;;;;11.44;69.61;100857.11;1681688;84;20203;-63
2022/05/30 00:32:18;;;;;;;;;;;;;;;11.43;69.72;100850.42;1681900;85;20210;-64
2022/05/30 00:35:23;;;;;;;;;;;;;;;11.44;69.92;100849.38;1682866;84;20299;-63
2022/05/30 00:38:28;;;;;;;;;;;;;;;11.44;70.03;100855.73;1682659;84;20230;-62
2022/05/30 00:41:33;;;;;;;;;;;;;;;11.43;70.01;100858.64;1670553;85;20270;-62
2022/05/30 00:44:42;;;;;;;;;;;;;;;11.41;70.00;100860.69;1674713;85;20543;-63
2022/05/30 00:47:50;;;;;;;;;;;;;;;11.36;70.05;100844.76;1681500;85;20258;-62
2022/05/30 00:50:58;;;;;;;;;;;;;;;11.39;70.23;100846.29;1681896;85;20618;-64
2022/05/30 00:54:06;;;;;;;;;;;;;;;11.39;70.29;100856.75;1682903;84;20178;-64
2022/05/30 00:57:22;;;;;;;;;;;;;;;11.36;70.32;100850.23;1681502;85;20250;-62
2022/05/30 01:00:29;;;;;;;;;;;;;;;11.37;70.40;100849.73;1681981;84;20594;-63
2022/05/30 01:07:00;;;;;;;;;;;;;;;11.34;70.54;100838.58;1681626;85;20634;-62
2022/05/30 01:10:15;;;;;;;;;;;;;;;11.35;70.61;100846.30;1681480;85;20263;-63
2022/05/30 01:13:30;;;;;;;;;;;;;;;11.35;70.69;100858.63;1681527;85;20262;-63
2022/05/30 01:16:37;;;;;;;;;;;;;;;11.33;70.74;100860.17;1681908;85;20218;-62
2022/05/30 01:19:45;;;;;;;;;;;;;;;11.32;70.75;100857.07;1682087;84;20556;-62
2022/05/30 01:23:01;;;;;;;;;;;;;;;11.33;70.87;100858.80;1681409;85;20199;-65
2022/05/30 01:26:32;;;;;;;;;;;;;;;11.36;70.93;100846.63;1677636;85;20531;-64
2022/05/30 01:29:43;;;;;;;;;;;;;;;11.33;70.87;100837.37;1681402;85;20266;-66
2022/05/30 01:32:49;;;;;;;;;;;;;;;11.30;70.90;100848.69;1682159;85;20227;-65
2022/05/30 01:35:54;;;;;;;;;;;;;;;11.29;70.92;100844.24;1678701;85;20230;-63
2022/05/30 01:39:05;;;;;;;;;;;;;;;11.26;70.94;100835.83;1682069;85;20214;-63
2022/05/30 01:42:16;;;;;;;;;;;;;;;11.24;70.94;100841.14;1674750;85;20305;-64
2022/05/30 01:45:21;;;;;;;;;;;;;;;11.19;70.90;100855.86;1681835;85;20199;-63
2022/05/30 01:48:27;;;;;;;;;;;;;;;11.13;70.91;100851.06;1682886;85;20191;-63
2022/05/30 01:51:33;;;;;;;;;;;;;;;11.10;70.97;100843.18;1682286;85;20279;-63
2022/05/30 01:54:38;;;;;;;;;;;;;;;11.06;71.02;100837.67;1682718;84;20191;-63
2022/05/30 01:57:47;;;;;;;;;;;;;;;11.04;71.10;100840.58;1672715;85;20203;-63
2022/05/30 02:00:57;;;;;;;;;;;;;;;11.03;71.18;100838.02;1681864;85;20195;-62
2022/05/30 02:04:06;;;;;;;;;;;;;;;11.02;71.25;100831.67;1681079;84;20227;-62
2022/05/30 02:07:14;;;;;;;;;;;;;;;11.01;71.25;100837.31;1672803;85;20219;-62
2022/05/30 02:10:20;;;;;;;;;;;;;;;10.97;71.30;100834.58;1694559;84;20288;-62
2022/05/30 02:13:29;;;;;;;;;;;;;;;10.99;71.42;100836.65;1684791;83;20210;-63
2022/05/30 02:17:00;;;;;;;;;;;;;;;11.04;71.54;100824.65;1692627;84;20238;-63
2022/05/30 02:20:06;;;;;;;;;;;;;;;11.11;71.62;100802.41;1675458;85;20203;-63
2022/05/30 02:23:13;;;;;;;;;;;;;;;11.15;71.64;100807.88;1686376;84;20632;-63
2022/05/30 02:26:19;;;;;;;;;;;;;;;11.19;71.63;100803.80;1702343;84;20735;-62
2022/05/30 02:29:23;;;;;;;;;;;;;;;11.19;71.63;100798.31;1698862;84;20205;-64
2022/05/30 02:32:27;;;;;;;;;;;;;;;11.21;71.70;100798.48;1679893;85;20252;-62
2022/05/30 02:38:57;;;;;;;;;;;;;;;11.30;71.78;100786.52;1679503;85;20246;-64
2022/05/30 02:42:13;;;;;;;;;;;;;;;11.39;71.86;100785.48;1684132;85;20222;-63
2022/05/30 02:45:19;;;;;;;;;;;;;;;11.48;71.90;100785.81;1678504;84;20211;-63
2022/05/30 02:48:24;;;;;;;;;;;;;;;11.57;71.98;100776.58;1688933;81;20203;-62
2022/05/30 02:51:30;;;;;;;;;;;;;;;11.69;72.05;100762.00;1702708;84;20184;-65
2022/05/30 02:54:35;;;;;;;;;;;;;;;11.79;72.08;100755.83;1705087;83;20659;-63
2022/05/30 02:57:45;;;;;;;;;;;;;;;11.88;72.16;100763.86;1698387;84;20205;-64
2022/05/30 03:00:51;;;;;;;;;;;;;;;12.02;72.20;100785.09;1696605;84;20288;-64
2022/05/30 03:03:57;;;;;;;;;;;;;;;12.16;72.25;100801.88;1695403;83;20205;-59
2022/05/30 03:07:05;;;;;;;;;;;;;;;12.27;72.27;100824.31;1703259;84;20248;-58
2022/05/30 03:10:10;;;;;;;;;;;;;;;12.40;72.26;100839.70;1695858;84;20301;-59
2022/05/30 03:13:20;;;;;;;;;;;;;;;12.51;72.20;100841.23;1665145;85;20213;-60
2022/05/30 03:16:26;;;;;;;;;;;;;;;12.60;72.21;100843.77;1684684;85;20254;-59
2022/05/30 03:19:31;;;;;;;;;;;;;;;12.73;72.21;100844.03;1682856;85;20515;-59
2022/05/30 03:22:39;;;;;;;;;;;;;;;12.86;72.24;100841.57;1673361;85;20603;-59
2022/05/30 03:25:46;;;;;;;;;;;;;;;12.98;72.17;100835.16;1672755;85;20585;-60
2022/05/30 03:28:53;;;;;;;;;;;;;;;13.10;72.15;100846.97;1673901;85;20529;-58
2022/05/30 03:32:00;;;;;;;;;;;;;;;13.17;72.14;100850.73;1680352;85;20544;-57
2022/05/30 03:35:06;;;;;;;;;;;;;;;13.24;72.08;100836.58;1659837;85;20194;-56
2022/05/30 03:38:16;;;;;;;;;;;;;;;13.29;72.05;100842.39;1694772;84;20249;-57
2022/05/30 03:41:23;;;;;;;;;;;;;;;13.36;72.06;100831.01;1684398;84;20195;-55
2022/05/30 03:44:33;;;;;;;;;;;;;;;13.39;71.95;100835.27;1684755;84;20536;-57
2022/05/30 03:47:49;;;;;;;;;;;;;;;13.43;71.93;100842.97;1687205;84;20228;-56
2022/05/30 03:50:56;;;;;;;;;;;;;;;13.48;71.89;100841.04;1666292;86;20600;-56
2022/05/30 03:54:00;;;;;;;;;;;;;;;13.51;71.91;100829.16;1669692;86;20187;-56
2022/05/30 03:57:05;;;;;;;;;;;;;;;13.63;72.04;100821.84;1673915;86;20206;-58
2022/05/30 04:00:14;;;;;;;;;;;;;;;13.73;72.08;100827.96;1658481;86;20244;-56
2022/05/30 04:03:20;;;;;;;;;;;;;;;13.84;72.12;100833.02;1657793;86;20545;-56
2022/05/30 04:06:27;;;;;;;;;;;;;;;13.95;72.13;100840.83;1646135;86;20568;-55
2022/05/30 04:09:33;;;;;;;;;;;;;;;14.07;72.17;100829.69;1674016;85;20187;-56
2022/05/30 04:12:57;;;;;;;;;;;;;;;14.18;72.16;100830.60;1585759;90;20220;-55
2022/05/30 04:16:21;;;;;;;;;;;;;;;14.30;72.17;100824.47;1689682;84;20204;-55
2022/05/30 04:19:32;;;;;;;;;;;;;;;14.44;72.19;100820.89;1705267;84;20596;-57
2022/05/30 04:22:38;;;;;;;;;;;;;;;14.55;72.18;100829.19;1704490;84;20585;-56
2022/05/30 04:26:04;;;;;;;;;;;;;;;14.67;72.19;100840.05;1673742;85;20539;-56
2022/05/30 04:29:11;;;;;;;;;;;;;;;14.77;72.15;100831.84;1672899;85;20251;-56
2022/05/30 04:32:27;;;;;;;;;;;;;;;14.88;72.16;100820.33;1689559;84;20569;-55
2022/05/30 04:35:34;;;;;;;;;;;;;;;15.02;72.18;100814.44;1693161;84;20764;-55
2022/05/30 04:38:40;;;;;;;;;;;;;;;15.15;72.15;100821.49;1687497;84;20561;-56
2022/05/30 04:42:00;;;;;;;;;;;;;;;15.28;72.17;100806.47;1693973;84;20697;-56
2022/05/30 04:45:22;;;;;;;;;;;;;;;15.42;72.17;100797.31;1698635;84;20632;-55
2022/05/30 04:48:33;;;;;;;;;;;;;;;15.52;72.07;100798.36;1681555;84;20287;-55
2022/05/30 04:51:38;;;;;;;;;;;;;;;15.64;72.13;100791.25;1732448;82;20550;-56
2022/05/30 04:54:45;;;;;;;;;;;;;;;15.76;72.13;100792.44;1738536;81;20258;-55
2022/05/30 04:58:02;;;;;;;;;;;;;;;15.87;72.11;100783.61;1722219;82;20225;-54
2022/05/30 05:01:11;;;;;;;;;;;;;;;15.98;72.06;100792.17;1727186;82;20493;-53
2022/05/30 05:04:18;;;;;;;;;;;;;;;16.10;72.07;100789.20;1732800;81;20244;-55
2022/05/30 05:07:22;;;;;;;;;;;;;;;16.21;72.01;100776.21;1717838;82;20586;-51
2022/05/30 05:10:54;;;;;;;;;;;;;;;16.31;71.96;100782.75;1734637;81;20649;-54
2022/05/30 05:14:06;;;;;;;;;;;;;;;16.39;71.89;100782.04;1758578;80;20212;-53
2022/05/30 05:17:21;;;;;;;;;;;;;;;16.50;71.89;100783.43;1725447;81;20209;-54
2022/05/30 05:20:26;;;;;;;;;;;;;;;16.65;71.95;100781.92;1711028;82;20218;-55
2022/05/30 05:23:33;;;;;;;;;;;;;;;16.77;71.93;100788.55;1741386;80;20277;-56
2022/05/30 05:26:37;;;;;;;;;;;;;;;16.83;71.85;100788.59;1740350;81;20602;-54
2022/05/30 05:29:46;;;;;;;;;;;;;;;16.89;71.81;100783.61;1734314;82;20209;-55
2022/05/30 05:32:55;;;;;;;;;;;;;;;16.96;71.73;100787.78;1737825;82;20705;-54
2022/05/30 05:36:01;;;;;;;;;;;;;;;17.05;71.73;100786.01;1737961;82;20281;-55
2022/05/30 05:39:08;;;;;;;;;;;;;;;17.16;71.71;100790.07;1734904;81;20222;-52
2022/05/30 05:42:18;;;;;;;;;;;;;;;17.25;71.61;100773.63;1736969;82;20250;-52
2022/05/30 05:45:26;;;;;;;;;;;;;;;17.32;71.54;100777.23;1736965;81;20249;-53
2022/05/30 05:48:33;;;;;;;;;;;;;;;17.40;71.54;100772.89;1724045;82;20206;-53
2022/05/30 05:51:40;;;;;;;;;;;;;;;17.50;71.51;100767.31;1706112;84;20647;-54
2022/05/30 05:54:48;;;;;;;;;;;;;;;17.60;71.46;100753.89;1741249;81;20542;-53
2022/05/30 05:57:54;;;;;;;;;;;;;;;17.67;71.43;100755.28;1739152;82;20214;-52
2022/05/30 06:00:59;;;;;;;;;;;;;;;17.75;71.35;100740.70;1733810;82;20218;-52
2022/05/30 06:04:06;;;;;;;;;;;;;;;17.85;71.40;100742.48;1736888;81;20567;-53
2022/05/30 06:07:30;;;;;;;;;;;;;;;17.97;71.37;100744.08;1714139;84;20256;-53
2022/05/30 06:11:16;;;;;;;;;;;;;;;18.11;71.40;100744.38;1739193;82;20613;-54
2022/05/30 06:14:26;;;;;;;;;;;;;;;18.24;71.34;100749.90;1740380;82;20649;-54
2022/05/30 06:17:33;;;;;;;;;;;;;;;18.32;71.30;100756.59;1730242;81;20262;-54
2022/05/30 06:20:41;;;;;;;;;;;;;;;18.40;71.23;100757.78;1717913;82;20225;-52
2022/05/30 06:23:48;;;;;;;;;;;;;;;18.45;71.17;100769.08;1742339;81;20211;-53
2022/05/30 06:27:15;;;;;;;;;;;;;;;18.49;71.15;100768.13;1714817;84;20207;-54
2022/05/30 06:30:28;;;;;;;;;;;;;;;18.55;71.20;100761.14;1714375;82;20548;-53
2022/05/30 06:33:42;;;;;;;;;;;;;;;18.64;71.24;100757.59;1690756;82;20200;-56
2022/05/30 06:36:54;;;;;;;;;;;;;;;18.71;71.22;100753.72;1714475;84;20252;-56
2022/05/30 06:39:48;;;;;;;;;;;;;;;18.81;71.21;100756.03;1730947;81;20553;-56
2022/05/30 06:43:03;;;;;;;;;;;;;;;18.91;71.23;100759.20;1726887;82;20247;-56
2022/05/30 06:46:19;;;;;;;;;;;;;;;19.00;71.13;100757.86;1728134;81;20621;-48
2022/05/30 06:49:44;;;;;;;;;;;;;;;19.09;71.11;100755.99;1738596;81;20235;-55
2022/05/30 06:52:58;;;;;;;;;;;;;;;19.21;71.10;100755.63;1735863;82;20294;-56
2022/05/30 06:56:24;;;;;;;;;;;;;;;19.30;70.98;100757.08;1733038;82;20278;-54
2022/05/30 06:59:34;;;;;;;;;;;;;;;19.37;70.87;100759.82;1738287;81;20218;-57
2022/05/30 07:02:41;;;;;;;;;;;;;;;19.45;70.85;100764.25;1737018;82;20206;-60
2022/05/30 07:06:22;;;;;;;;;;;;;;;19.50;70.79;100766.68;1736358;82;20234;-59
2022/05/30 07:09:24;;;;;;;;;;;;;;;19.62;70.73;100762.63;1736791;82;20234;-52
2022/05/30 07:12:21;;;;;;;;;;;;;;;19.72;70.64;100778.26;1730883;82;20269;-55
2022/05/30 07:15:13;;;;;;;;;;;;;;;19.80;70.63;100773.29;1738819;81;20246;-53
2022/05/30 07:18:07;;;;;;;;;;;;;;;19.88;70.54;100773.01;1737177;82;20270;-54
2022/05/30 07:21:16;;;;;;;;;;;;;;;19.94;70.41;100769.84;1730930;82;20210;-55
2022/05/30 07:24:32;;;;;;;;;;;;;;;20.01;70.39;100776.20;1674734;82;20221;-52
2022/05/30 07:27:47;;;;;;;;;;;;;;;20.10;70.30;100785.42;1709311;82;20863;-56
2022/05/30 07:31:19;;;;;;;;;;;;;;;20.19;70.25;100787.39;1708754;84;20268;-57
2022/05/30 07:34:48;;;;;;;;;;;;;;;20.28;70.21;100778.52;1731871;82;20202;-55
2022/05/30 07:38:13;;;;;;;;;;;;;;;20.35;70.06;100770.11;1734705;82;20210;-54
2022/05/30 07:41:35;;;;;;;;;;;;;;;20.41;70.01;100770.05;1736264;82;20615;-53
2022/05/30 07:44:46;;;;;;;;;;;;;;;20.52;69.88;100772.59;1726109;82;20216;-57
2022/05/30 07:47:56;;;;;;;;;;;;;;;20.58;69.86;100761.96;1720867;82;20253;-55
2022/05/30 07:51:13;;;;;;;;;;;;;;;20.66;69.77;100761.09;1737666;82;20542;-55
2022/05/30 07:54:41;;;;;;;;;;;;;;;20.76;69.79;100764.72;1737042;81;20210;-54
2022/05/30 07:57:54;;;;;;;;;;;;;;;20.90;69.77;100756.51;1735906;82;20211;-54
2022/05/30 08:01:03;;;;;;;;;;;;;;;20.97;69.56;100761.50;1735555;82;20214;-55
2022/05/30 08:04:13;;;;;;;;;;;;;;;21.04;69.50;100758.63;1735550;82;20277;-58
2022/05/30 08:07:26;;;;;;;;;;;;;;;21.16;69.53;100750.63;1763086;81;20276;-50
2022/05/30 08:10:47;;;;;;;;;;;;;;;21.26;69.41;100752.85;1733582;81;20199;-52
2022/05/30 08:13:55;;;;;;;;;;;;;;;21.31;69.36;100745.47;1737329;81;20242;-52
2022/05/30 08:17:02;;;;;;;;;;;;;;;21.37;69.27;100747.33;1737216;82;20230;-52
2022/05/30 08:20:12;;;;;;;;;;;;;;;21.45;69.19;100749.78;1737078;82;20591;-53
2022/05/30 08:23:25;;;;;;;;;;;;;;;21.57;69.14;100738.11;1709298;82;20699;-53
2022/05/30 08:26:37;;;;;;;;;;;;;;;21.68;69.05;100738.68;1709431;83;20572;-54
2022/05/30 08:29:51;;;;;;;;;;;;;;;21.83;69.00;100725.18;1698508;81;20206;-53
2022/05/30 08:33:00;;;;;;;;;;;;;;;21.99;68.92;100727.22;1736540;82;20266;-53
2022/05/30 08:36:23;;;;;;;;;;;;;;;22.13;68.84;100721.73;1736870;82;20218;-52
2022/05/30 08:42:57;;;;;;;;;;;;;;;22.33;68.39;100732.50;1735375;82;20206;-52
2022/05/30 08:46:25;;;;;;;;;;;;;;;22.38;68.24;100734.02;1727408;81;20562;-52
2022/05/30 08:49:50;;;;;;;;;;;;;;;22.43;68.10;100731.34;1693540;83;20574;-51
2022/05/30 08:53:09;;;;;;;;;;;;;;;22.53;68.12;100729.36;1671235;83;20240;-53
2022/05/30 08:56:24;;;;;;;;;;;;;;;22.73;67.97;100718.63;1687178;85;20234;-55
2022/05/30 09:00:12;;;;;;;;;;;;;;;22.93;67.80;100714.89;1727660;81;20198;-54
2022/05/30 09:03:22;;;;;;;;;;;;;;;23.15;67.63;100704.72;1733197;81;20222;-57
2022/05/30 09:06:35;;;;;;;;;;;;;;;23.33;67.51;100714.30;1754955;81;20223;-54
2022/05/30 09:09:53;;;;;;;;;;;;;;;23.44;67.36;100705.86;1769935;81;20211;-56
2022/05/30 09:13:06;;;;;;;;;;;;;;;23.45;67.14;100699.73;1770170;81;20211;-58
2022/05/30 09:16:33;;;;;;;;;;;;;;;23.47;66.94;100700.30;1752390;81;20202;-57
2022/05/30 09:19:42;;;;;;;;;;;;;;;23.50;66.80;100701.19;1733363;82;20206;-56
2022/05/30 09:22:49;;;;;;;;;;;;;;;23.65;66.79;100694.48;1732657;82;20210;-57
2022/05/30 09:25:56;;;;;;;;;;;;;;;23.78;66.68;100690.50;1708042;83;20252;-59
2022/05/30 09:29:29;;;;;;;;;;;;;;;23.94;66.64;100680.72;1707799;82;20197;-58
2022/05/30 09:32:59;;;;;;;;;;;;;;;24.14;66.59;100672.66;1708590;84;20223;-58
2022/05/30 09:36:22;;;;;;;;;;;;;;;24.42;66.55;100661.29;1700626;82;20522;-57
2022/05/30 09:39:50;;;;;;;;;;;;;;;24.68;66.45;100654.95;1721278;82;20253;-56
2022/05/30 09:43:03;;;;;;;;;;;;;;;24.92;66.16;100646.56;1729899;82;20258;-55
2022/05/30 09:46:43;;;;;;;;;;;;;;;25.08;66.02;100648.39;1731225;82;20282;-58
2022/05/30 09:49:57;;;;;;;;;;;;;;;25.28;65.73;100645.51;1723874;82;20759;-56
2022/05/30 09:53:06;;;;;;;;;;;;;;;25.49;65.45;100649.69;1721516;82;20522;-58
2022/05/30 09:56:13;;;;;;;;;;;;;;;25.57;65.00;100642.19;1706124;84;20569;-58
2022/05/30 09:59:41;;;;;;;;;;;;;;;25.62;64.76;100643.64;1686859;83;20198;-56
2022/05/30 10:02:48;;;;;;;;;;;;;;;25.73;64.61;100641.20;1690349;84;20560;-57
2022/05/30 10:06:00;;;;;;;;;;;;;;;25.81;64.40;100642.66;1699876;84;20583;-55
2022/05/30 10:09:37;;;;;;;;;;;;;;;25.83;64.11;100637.63;1694144;83;20238;-61
2022/05/30 10:12:49;;;;;;;;;;;;;;;25.82;63.97;100646.59;1693239;83;20290;-60
2022/05/30 10:16:21;;;;;;;;;;;;;;;25.89;63.87;100653.38;1657226;84;20256;-63
2022/05/30 10:20:08;;;;;;;;;;;;;;;25.99;63.72;100653.46;1697576;82;20355;-61
2022/05/30 10:28:20;;;;;;;;;;;;;;;26.23;63.33;100665.98;1694813;84;20227;-59
2022/05/30 10:36:06;;;;;;;;;;;;;;;26.41;62.83;100658.51;1696911;82;20327;-59
2022/05/30 10:43:49;;;;;;;;;;;;;;;26.67;62.08;100663.73;1826660;76;20169;-59
2022/05/30 10:47:16;;;;;;;;;;;;;;;26.57;61.86;100660.83;1787465;79;20780;-60
2022/05/30 10:51:05;;;;;;;;;;;;;;;26.50;61.71;100653.23;1790039;79;20784;-61
2022/05/30 10:54:29;;;;;;;;;;;;;;;26.44;61.59;100658.81;1790641;78;20315;-60
2022/05/30 10:57:50;;;;;;;;;;;;;;;26.39;61.47;100658.78;1798606;79;20377;-60
2022/05/30 11:00:59;;;;;;;;;;;;;;;26.37;61.41;100648.38;1798384;79;20478;-60
2022/05/30 11:04:56;;;;;;;;;;;;;;;26.37;61.36;100651.73;1784754;78;20702;-63
2022/05/30 11:08:34;;;;;;;;;;;;;;;26.34;61.11;100657.89;1786207;78;20245;-64
2022/05/30 11:11:49;;;;;;;;;;;;;;;26.14;60.80;100659.19;1791955;79;20601;-64
2022/05/30 11:15:12;;;;;;;;;;;;;;;26.02;60.80;100652.37;1794806;78;20231;-64
2022/05/30 11:18:45;;;;;;;;;;;;;;;25.95;60.73;100652.30;1719960;82;20214;-62
2022/05/30 11:22:10;;;;;;;;;;;;;;;25.90;60.72;100650.30;1776604;78;20216;-65
2022/05/30 11:25:17;;;;;;;;;;;;;;;25.94;60.73;100650.62;1801290;79;20195;-61
2022/05/30 11:28:40;;;;;;;;;;;;;;;25.97;60.67;100651.47;1799538;79;20223;-64
2022/05/30 11:31:56;;;;;;;;;;;;;;;25.97;60.57;100641.66;1801102;78;20211;-62
2022/05/30 11:35:40;;;;;;;;;;;;;;;26.02;60.52;100636.11;1796453;78;20206;-61
2022/05/30 11:39:04;;;;;;;;;;;;;;;26.08;60.40;100632.22;1797604;79;20475;-61
2022/05/30 11:42:20;;;;;;;;;;;;;;;26.16;60.41;100630.30;1794091;79;20201;-64
2022/05/30 11:46:03;;;;;;;;;;;;;;;26.28;60.31;100635.12;1798230;79;20306;-62
2022/05/30 11:49:24;;;;;;;;;;;;;;;26.42;60.30;100633.52;1778282;79;20278;-64
2022/05/30 11:52:50;;;;;;;;;;;;;;;26.66;60.12;100637.59;1797505;79;20195;-64
2022/05/30 11:56:15;;;;;;;;;;;;;;;26.79;59.90;100634.27;1799724;79;20191;-65
2022/05/30 11:59:38;;;;;;;;;;;;;;;27.02;59.75;100633.77;1781180;79;20274;-63
2022/05/30 12:03:04;;;;;;;;;;;;;;;27.22;59.45;100637.19;1779154;79;20197;-62
2022/05/30 12:06:32;;;;;;;;;;;;;;;27.27;59.08;100638.09;1802869;79;20262;-65
2022/05/30 12:09:58;;;;;;;;;;;;;;;27.26;58.92;100633.56;1786577;79;20252;-59
2022/05/30 12:13:11;;;;;;;;;;;;;;;27.28;58.72;100635.55;1757705;79;20582;-63
2022/05/30 12:16:20;;;;;;;;;;;;;;;27.26;58.60;100639.70;1801507;79;20262;-61
2022/05/30 12:26:09;;;;;;;;;;;;;;;27.06;58.06;100634.06;1783291;79;20203;-63
2022/05/30 12:29:15;;;;;;;;;;;;;;;26.89;57.83;100628.69;1804835;78;20195;-65
2022/05/30 12:32:36;;;;;;;;;;;;;;;26.78;57.80;100624.16;1802071;79;20250;-61
2022/05/30 12:35:29;;;;;;;;;;;;;;;26.65;57.69;100629.44;1793999;78;20251;-62
2022/05/30 12:38:26;;;;;;;;;;;;;;;26.48;57.61;100618.40;1789321;79;20204;-61
2022/05/30 12:41:47;;;;;;;;;;;;;;;26.34;57.57;100624.20;1788742;79;20618;-62
2022/05/30 12:44:59;;;;;;;;;;;;;;;26.17;57.53;100619.34;1787741;78;20230;-62
2022/05/30 12:48:13;;;;;;;;;;;;;;;26.02;57.50;100622.91;1778430;79;20223;-61
2022/05/30 12:51:46;;;;;;;;;;;;;;;25.95;57.56;100628.44;1788910;79;20572;-64
2022/05/30 12:55:08;;;;;;;;;;;;;;;25.84;57.52;100620.52;1792854;79;20199;-63
2022/05/30 12:58:19;;;;;;;;;;;;;;;25.71;57.41;100620.98;1791633;79;20548;-64
2022/05/30 13:01:37;;;;;;;;;;;;;;;25.59;57.38;100625.95;1794230;78;20207;-65
2022/05/30 13:04:49;;;;;;;;;;;;;;;25.48;57.37;100623.32;1792901;79;20223;-62
2022/05/30 13:07:55;;;;;;;;;;;;;;;25.35;57.42;100624.61;1784196;79;20215;-63
2022/05/30 13:11:08;;;;;;;;;;;;;;;25.24;57.45;100631.75;1786232;79;20218;-62
2022/05/30 13:14:41;;;;;;;;;;;;;;;25.11;57.54;100623.77;1794635;78;20202;-64
2022/05/30 13:18:03;;;;;;;;;;;;;;;24.98;57.53;100634.30;1770142;79;20598;-63
2022/05/30 13:21:10;;;;;;;;;;;;;;;24.85;57.62;100627.70;1725137;81;20462;-63
2022/05/30 13:24:08;;;;;;;;;;;;;;;24.74;57.69;100620.30;1748867;81;20214;-63
2022/05/30 13:27:13;;;;;;;;;;;;;;;24.66;57.77;100624.97;1751983;81;20203;-63
2022/05/30 13:30:23;;;;;;;;;;;;;;;24.56;57.81;100611.38;1752626;81;20491;-63
2022/05/30 13:33:35;;;;;;;;;;;;;;;24.46;57.83;100614.89;1737842;81;20213;-62
2022/05/30 13:36:49;;;;;;;;;;;;;;;24.36;57.87;100609.16;1747303;81;20220;-64
2022/05/30 13:39:55;;;;;;;;;;;;;;;24.28;57.97;100608.20;1744274;81;20592;-64
2022/05/30 13:43:05;;;;;;;;;;;;;;;24.21;58.02;100603.37;1743285;81;20273;-63
2022/05/30 13:46:13;;;;;;;;;;;;;;;24.14;58.11;100611.09;1733344;81;20207;-64
2022/05/30 13:49:20;;;;;;;;;;;;;;;24.08;58.16;100607.09;1727628;81;20213;-63
2022/05/30 13:52:33;;;;;;;;;;;;;;;24.02;58.17;100608.12;1729693;81;20259;-64
2022/05/30 13:55:36;;;;;;;;;;;;;;;23.94;58.20;100599.60;1728720;81;20238;-64
2022/05/30 13:58:44;;;;;;;;;;;;;;;23.89;58.19;100600.06;1727125;81;20245;-64
2022/05/30 14:01:54;;;;;;;;;;;;;;;23.84;58.24;100602.23;1732781;81;20258;-62
2022/05/30 14:05:13;;;;;;;;;;;;;;;23.80;58.30;100597.42;1733586;81;20212;-62
2022/05/30 14:08:29;;;;;;;;;;;;;;;23.77;58.32;100593.17;1745835;81;20522;-61
2022/05/30 14:11:50;;;;;;;;;;;;;;;23.80;58.39;100596.84;1739432;81;20258;-62
2022/05/30 14:14:57;;;;;;;;;;;;;;;23.84;58.44;100585.46;1739135;81;20235;-62
2022/05/30 14:18:05;;;;;;;;;;;;;;;23.89;58.41;100575.75;1734237;81;20274;-58
2022/05/30 14:21:14;;;;;;;;;;;;;;;23.93;58.39;100576.09;1734144;81;20209;-61
2022/05/30 14:24:32;;;;;;;;;;;;;;;23.91;58.45;100588.94;1737519;81;20243;-61
2022/05/30 14:27:37;;;;;;;;;;;;;;;23.90;58.54;100585.82;1732306;81;20239;-60
2022/05/30 14:30:46;;;;;;;;;;;;;;;23.92;58.57;100589.76;1735861;81;20542;-59
2022/05/30 14:34:05;;;;;;;;;;;;;;;23.88;58.63;100585.23;1741235;81;20422;-61
2022/05/30 14:37:12;;;;;;;;;;;;;;;23.84;58.68;100579.87;1742528;81;20236;-60
2022/05/30 14:40:42;;;;;;;;;;;;;;;23.77;58.70;100581.16;1735325;81;20248;-60
2022/05/30 14:44:01;;;;;;;;;;;;;;;23.74;58.76;100570.50;1744184;81;20212;-61
2022/05/30 14:47:08;;;;;;;;;;;;;;;23.71;58.82;100570.98;1718889;82;20218;-60
2022/05/30 14:50:15;;;;;;;;;;;;;;;23.68;58.84;100572.35;1746673;81;20208;-59
2022/05/30 14:53:27;;;;;;;;;;;;;;;23.64;58.87;100579.58;1792034;79;20196;-58
2022/05/30 14:56:33;;;;;;;;;;;;;;;23.57;58.91;100576.09;1803189;79;20306;-60
2022/05/30 14:59:45;;;;;;;;;;;;;;;23.59;58.95;100578.09;1801808;79;20567;-60
2022/05/30 15:06:16;;;;;;;;;;;;;;;23.56;58.99;100573.02;1804062;79;20231;-61
2022/05/30 15:09:25;;;;;;;;;;;;;;;23.54;59.03;100567.69;1804684;79;20560;-59
2022/05/30 15:12:32;;;;;;;;;;;;;;;23.50;59.12;100578.20;1799457;79;20215;-60
2022/05/30 15:15:36;;;;;;;;;;;;;;;23.46;59.14;100572.84;1768166;81;20566;-60
2022/05/30 15:18:41;;;;;;;;;;;;;;;23.40;59.18;100570.51;1804036;79;20606;-58
2022/05/30 15:21:57;;;;;;;;;;;;;;;23.35;59.28;100577.44;1793204;79;20639;-59
2022/05/30 15:25:04;;;;;;;;;;;;;;;23.30;59.35;100577.34;1804603;79;20250;-60
2022/05/30 15:28:10;;;;;;;;;;;;;;;23.23;59.39;100564.05;1804487;79;20243;-60
2022/05/30 15:31:15;;;;;;;;;;;;;;;23.19;59.47;100562.02;1800811;79;20213;-59
2022/05/30 15:34:20;;;;;;;;;;;;;;;23.16;59.52;100570.38;1794995;79;20191;-61
2022/05/30 15:37:25;;;;;;;;;;;;;;;23.15;59.58;100577.61;1794213;79;20211;-62
2022/05/30 15:40:30;;;;;;;;;;;;;;;23.15;59.63;100576.22;1798652;79;20192;-61
2022/05/30 15:43:38;;;;;;;;;;;;;;;23.15;59.63;100575.64;1772605;80;20277;-60
2022/05/30 15:46:44;;;;;;;;;;;;;;;23.16;59.62;100583.48;1783635;78;20195;-60
2022/05/30 15:49:53;;;;;;;;;;;;;;;23.11;59.60;100579.20;1802197;79;20214;-61
2022/05/30 15:59:50;;;;;;;;;;;;;;;22.86;59.74;100579.61;1772444;80;20209;-58
2022/05/30 16:02:57;;;;;;;;;;;;;;;22.75;59.81;100545.63;1793524;79;20219;-58
2022/05/30 16:06:03;;;;;;;;;;;;;;;22.65;59.94;100520.84;1803987;79;20243;-58
2022/05/30 16:09:09;;;;;;;;;;;;;;;22.57;60.05;100524.89;1802263;78;20212;-60
2022/05/30 16:12:17;;;;;;;;;;;;;;;22.48;60.18;100536.67;1795024;79;20712;-59
2022/05/30 16:15:26;;;;;;;;;;;;;;;22.42;60.30;100543.26;1790376;79;20195;-60
2022/05/30 16:18:32;;;;;;;;;;;;;;;22.37;60.41;100534.78;1783092;79;20194;-60
2022/05/30 16:21:36;;;;;;;;;;;;;;;22.30;60.53;100525.16;1773398;81;20237;-61
2022/05/30 16:24:43;;;;;;;;;;;;;;;22.24;60.57;100519.19;1793697;79;20191;-58
2022/05/30 16:27:49;;;;;;;;;;;;;;;22.18;60.63;100517.41;1791361;79;20219;-58
2022/05/30 16:30:53;;;;;;;;;;;;;;;22.12;60.68;100515.58;1803467;79;20509;-59
2022/05/30 16:33:59;;;;;;;;;;;;;;;22.07;60.76;100512.71;1802126;79;20211;-61
2022/05/30 16:37:04;;;;;;;;;;;;;;;22.04;60.83;100509.03;1764207;81;20259;-58
2022/05/30 16:40:10;;;;;;;;;;;;;;;22.01;60.94;100516.46;1771049;81;20250;-59
2022/05/30 16:43:15;;;;;;;;;;;;;;;22.00;61.02;100509.20;1772521;80;20210;-59
2022/05/30 16:46:22;;;;;;;;;;;;;;;22.00;61.07;100508.67;1771847;80;20834;-59
2022/05/30 16:49:31;;;;;;;;;;;;;;;21.98;61.04;100508.06;1773111;80;20620;-59
2022/05/30 16:52:33;;;;;;;;;;;;;;;21.94;61.08;100512.98;1773657;79;20225;-60
2022/05/30 16:55:38;;;;;;;;;;;;;;;21.91;61.13;100509.30;1790950;79;20486;-57
2022/05/30 16:58:46;;;;;;;;;;;;;;;21.86;61.14;100505.86;1804128;79;20254;-61
2022/05/30 17:01:53;;;;;;;;;;;;;;;21.82;61.14;100512.15;1791538;78;20534;-61
2022/05/30 17:05:05;;;;;;;;;;;;;;;21.76;61.21;100505.63;1796454;79;20513;-58
2022/05/30 17:08:09;;;;;;;;;;;;;;;21.71;61.27;100511.59;1792961;79;20212;-60